createdAt,value
2016-05-11T00:00:18.368Z,0
2016-05-11T00:01:18.356Z,0
2016-05-11T00:02:18.295Z,0
2016-05-11T00:03:18.267Z,0
2016-05-11T00:04:18.239Z,0
2016-05-11T00:05:18.210Z,0
2016-05-11T00:06:18.213Z,0
2016-05-11T00:07:18.153Z,0
2016-05-11T00:08:18.124Z,0
2016-05-11T00:09:17.925Z,0
2016-05-11T00:10:18.052Z,0
2016-05-11T00:11:18.022Z,0
2016-05-11T00:12:18.011Z,0
2016-05-11T00:13:17.810Z,0
2016-05-11T00:14:17.952Z,0
2016-05-11T00:15:17.909Z,0
2016-05-11T00:16:17.880Z,0
2016-05-11T00:17:17.696Z,0
2016-05-11T00:18:17.838Z,0
2016-05-11T00:19:17.794Z,0
2016-05-11T00:20:17.782Z,0
2016-05-11T00:21:17.737Z,0
2016-05-11T00:22:17.693Z,0
2016-05-11T00:23:17.665Z,0
2016-05-11T00:24:17.651Z,0
2016-05-11T00:25:17.452Z,0
2016-05-11T00:26:17.595Z,0
2016-05-11T00:27:17.551Z,0
2016-05-11T00:28:17.523Z,0
2016-05-11T00:29:17.337Z,0
2016-05-11T00:30:17.746Z,0
2016-05-11T00:31:17.436Z,0
2016-05-11T00:32:17.408Z,0
2016-05-11T00:33:17.364Z,0
2016-05-11T00:34:17.335Z,0
2016-05-11T00:35:17.306Z,0
2016-05-11T00:36:17.278Z,0
2016-05-11T00:37:17.234Z,0
2016-05-11T00:38:17.220Z,0
2016-05-11T00:39:17.192Z,0
2016-05-11T00:40:17.148Z,0
2016-05-11T00:41:17.119Z,0
2016-05-11T00:42:17.106Z,0
2016-05-11T00:43:17.062Z,0
2016-05-11T00:44:16.722Z,0
2016-05-11T00:45:17.099Z,0
2016-05-11T00:46:16.977Z,0
2016-05-11T00:47:16.933Z,0
2016-05-11T00:48:16.763Z,0
2016-05-11T00:49:16.875Z,0
2016-05-11T00:50:16.691Z,0
2016-05-11T00:51:16.834Z,0
2016-05-11T00:52:16.790Z,0
2016-05-11T00:53:16.760Z,0
2016-05-11T00:54:16.576Z,0
2016-05-11T00:55:16.704Z,0
2016-05-11T00:56:16.676Z,0
2016-05-11T00:57:16.631Z,0
2016-05-11T00:58:16.603Z,0
2016-05-11T00:59:16.262Z,0
2016-05-11T01:00:16.451Z,0
2016-05-11T01:01:16.532Z,0
2016-05-11T01:02:16.488Z,0
2016-05-11T01:03:16.444Z,0
2016-05-11T01:04:16.259Z,0
2016-05-11T01:05:16.403Z,0
2016-05-11T01:06:16.359Z,0
2016-05-11T01:07:16.345Z,0
2016-05-11T01:08:16.301Z,0
2016-05-11T01:09:16.116Z,0
2016-05-11T01:10:16.244Z,0
2016-05-11T01:11:16.216Z,0
2016-05-11T01:12:16.172Z,0
2016-05-11T01:13:16.159Z,0
2016-05-11T01:14:16.161Z,0
2016-05-11T01:15:16.539Z,0
2016-05-11T01:16:16.057Z,0
2016-05-11T01:17:15.873Z,0
2016-05-11T01:18:15.999Z,0
2016-05-11T01:19:15.971Z,0
2016-05-11T01:20:15.927Z,0
2016-05-11T01:21:15.915Z,0
2016-05-11T01:22:15.714Z,0
2016-05-11T01:23:15.841Z,0
2016-05-11T01:24:15.657Z,0
2016-05-11T01:25:15.471Z,0
2016-05-11T01:26:15.757Z,0
2016-05-11T01:27:15.727Z,0
2016-05-11T01:28:15.699Z,0
2016-05-11T01:29:15.655Z,0
2016-05-11T01:30:15.642Z,0
2016-05-11T01:31:15.597Z,0
2016-05-11T01:32:15.569Z,0
2016-05-11T01:33:15.526Z,0
2016-05-11T01:34:15.512Z,0
2016-05-11T01:35:15.484Z,0
2016-05-11T01:36:15.283Z,0
2016-05-11T01:37:15.411Z,0
2016-05-11T01:38:15.381Z,0
2016-05-11T01:39:15.354Z,0
2016-05-11T01:40:15.325Z,0
2016-05-11T01:41:15.311Z,0
2016-05-11T01:42:15.253Z,0
2016-05-11T01:43:15.239Z,0
2016-05-11T01:44:15.242Z,0
2016-05-11T01:45:15.448Z,0
2016-05-11T01:46:14.982Z,0
2016-05-11T01:47:15.155Z,0
2016-05-11T01:48:15.080Z,0
2016-05-11T01:49:15.053Z,0
2016-05-11T01:50:15.024Z,0
2016-05-11T01:51:14.839Z,0
2016-05-11T01:52:15.310Z,0
2016-05-11T01:53:15.032Z,0
2016-05-11T01:54:14.879Z,0
2016-05-11T01:55:14.865Z,0
2016-05-11T01:56:14.821Z,0
2016-05-11T01:57:14.793Z,0
2016-05-11T01:58:14.765Z,0
2016-05-11T01:59:14.735Z,0
2016-05-11T02:00:15.020Z,0
2016-05-11T02:01:14.662Z,0
2016-05-11T02:02:14.478Z,0
2016-05-11T02:03:14.605Z,0
2016-05-11T02:04:14.593Z,0
2016-05-11T02:05:14.549Z,0
2016-05-11T02:06:14.520Z,0
2016-05-11T02:07:14.334Z,0
2016-05-11T02:08:14.462Z,0
2016-05-11T02:09:14.419Z,0
2016-05-11T02:10:14.405Z,0
2016-05-11T02:11:14.361Z,0
2016-05-11T02:12:14.161Z,0
2016-05-11T02:13:14.289Z,0
2016-05-11T02:14:14.260Z,0
2016-05-11T02:15:14.075Z,0
2016-05-11T02:16:14.047Z,0
2016-05-11T02:17:14.175Z,0
2016-05-11T02:18:14.146Z,0
2016-05-11T02:19:14.102Z,0
2016-05-11T02:20:14.167Z,0
2016-05-11T02:21:14.060Z,0
2016-05-11T02:22:14.000Z,0
2016-05-11T02:23:14.003Z,0
2016-05-11T02:24:13.943Z,0
2016-05-11T02:25:13.930Z,0
2016-05-11T02:26:13.729Z,0
2016-05-11T02:27:13.545Z,0
2016-05-11T02:28:13.829Z,0
2016-05-11T02:29:13.801Z,0
2016-05-11T02:30:13.600Z,0
2016-05-11T02:31:13.571Z,0
2016-05-11T02:32:13.699Z,0
2016-05-11T02:33:13.499Z,0
2016-05-11T02:34:13.642Z,0
2016-05-11T02:35:13.457Z,0
2016-05-11T02:36:13.569Z,0
2016-05-11T02:37:13.540Z,0
2016-05-11T02:38:13.512Z,0
2016-05-11T02:39:13.468Z,0
2016-05-11T02:40:13.440Z,0
2016-05-11T02:41:13.411Z,0
2016-05-11T02:42:13.383Z,0
2016-05-11T02:43:13.338Z,0
2016-05-11T02:44:13.325Z,0
2016-05-11T02:45:13.280Z,0
2016-05-11T02:46:13.300Z,0
2016-05-11T02:47:13.224Z,0
2016-05-11T02:48:13.195Z,0
2016-05-11T02:49:13.167Z,0
2016-05-11T02:50:12.810Z,0
2016-05-11T02:51:13.094Z,0
2016-05-11T02:52:13.066Z,0
2016-05-11T02:53:13.037Z,0
2016-05-11T02:54:13.008Z,0
2016-05-11T02:55:12.964Z,0
2016-05-11T02:56:12.951Z,0
2016-05-11T02:57:12.907Z,0
2016-05-11T02:58:12.878Z,0
2016-05-11T02:59:12.679Z,0
2016-05-11T03:00:12.900Z,0
2016-05-11T03:01:12.777Z,0
2016-05-11T03:02:12.764Z,0
2016-05-11T03:03:12.564Z,0
2016-05-11T03:04:12.519Z,0
2016-05-11T03:05:12.647Z,0
2016-05-11T03:06:12.651Z,0
2016-05-11T03:07:12.590Z,0
2016-05-11T03:08:12.390Z,0
2016-05-11T03:09:12.501Z,0
2016-05-11T03:10:12.504Z,0
2016-05-11T03:11:12.460Z,0
2016-05-11T03:12:12.416Z,0
2016-05-11T03:13:12.387Z,0
2016-05-11T03:14:12.359Z,0
2016-05-11T03:15:12.596Z,0
2016-05-11T03:16:12.364Z,0
2016-05-11T03:17:12.273Z,4
2016-05-11T03:18:12.058Z,0
2016-05-11T03:19:12.200Z,0
2016-05-11T03:20:11.844Z,4
2016-05-11T03:21:12.127Z,4
2016-05-11T03:22:12.099Z,4
2016-05-11T03:23:12.071Z,4
2016-05-11T03:24:12.041Z,4
2016-05-11T03:25:11.999Z,8
2016-05-11T03:26:11.969Z,8
2016-05-11T03:27:11.925Z,8
2016-05-11T03:28:11.897Z,8
2016-05-11T03:29:11.868Z,12
2016-05-11T03:30:11.526Z,12
2016-05-11T03:31:11.817Z,12
2016-05-11T03:32:11.828Z,16
2016-05-11T03:33:11.855Z,20
2016-05-11T03:34:11.851Z,24
2016-05-11T03:35:11.846Z,28
2016-05-11T03:36:11.853Z,32
2016-05-11T03:37:11.838Z,36
2016-05-11T03:38:11.808Z,44
2016-05-11T03:39:11.779Z,48
2016-05-11T03:40:11.780Z,56
2016-05-11T03:41:11.764Z,64
2016-05-11T03:42:11.569Z,68
2016-05-11T03:43:11.701Z,76
2016-05-11T03:44:11.662Z,84
2016-05-11T03:45:12.013Z,92
2016-05-11T03:46:11.458Z,100
2016-05-11T03:47:11.588Z,108
2016-05-11T03:48:11.545Z,120
2016-05-11T03:49:11.549Z,128
2016-05-11T03:50:11.492Z,136
2016-05-11T03:51:11.450Z,152
2016-05-11T03:52:11.311Z,168
2016-05-11T03:53:11.237Z,188
2016-05-11T03:54:11.365Z,208
2016-05-11T03:55:11.352Z,232
2016-05-11T03:56:11.152Z,256
2016-05-11T03:57:11.265Z,280
2016-05-11T03:58:11.236Z,308
2016-05-11T03:59:11.052Z,336
2016-05-11T04:00:11.180Z,368
2016-05-11T04:01:11.137Z,400
2016-05-11T04:02:11.108Z,428
2016-05-11T04:03:10.923Z,456
2016-05-11T04:04:11.036Z,484
2016-05-11T04:05:11.006Z,512
2016-05-11T04:06:10.977Z,540
2016-05-11T04:07:10.949Z,564
2016-05-11T04:08:10.922Z,592
2016-05-11T04:09:10.877Z,620
2016-05-11T04:10:10.848Z,644
2016-05-11T04:11:10.538Z,668
2016-05-11T04:12:10.774Z,692
2016-05-11T04:13:10.590Z,724
2016-05-11T04:14:10.719Z,764
2016-05-11T04:15:10.674Z,804
2016-05-11T04:16:10.646Z,848
2016-05-11T04:17:10.663Z,892
2016-05-11T04:18:10.432Z,944
2016-05-11T04:19:10.388Z,996
2016-05-11T04:20:10.531Z,1048
2016-05-11T04:21:10.487Z,1104
2016-05-11T04:22:10.302Z,1164
2016-05-11T04:23:10.414Z,1240
2016-05-11T04:24:10.229Z,1312
2016-05-11T04:25:10.357Z,1384
2016-05-11T04:26:10.345Z,1464
2016-05-11T04:27:10.129Z,1548
2016-05-11T04:28:10.256Z,1640
2016-05-11T04:29:10.228Z,1728
2016-05-11T04:30:10.042Z,1816
2016-05-11T04:31:10.170Z,1900
2016-05-11T04:32:09.969Z,1984
2016-05-11T04:33:10.114Z,2076
2016-05-11T04:34:09.912Z,2180
2016-05-11T04:35:10.039Z,2276
2016-05-11T04:36:09.996Z,2380
2016-05-11T04:37:09.983Z,2484
2016-05-11T04:38:09.938Z,2600
2016-05-11T04:39:09.755Z,2716
2016-05-11T04:40:09.897Z,2852
2016-05-11T04:41:09.853Z,2988
2016-05-11T04:42:09.841Z,3152
2016-05-11T04:43:09.624Z,3356
2016-05-11T04:44:09.596Z,3652
2016-05-11T04:45:09.583Z,4340
2016-05-11T04:46:09.679Z,7628
2016-05-11T04:47:09.651Z,9988
2016-05-11T04:48:09.607Z,10700
2016-05-11T04:49:09.577Z,10672
2016-05-11T04:50:09.549Z,8644
2016-05-11T04:51:09.521Z,5428
2016-05-11T04:52:09.335Z,4508
2016-05-11T04:53:09.463Z,4300
2016-05-11T04:54:09.435Z,4244
2016-05-11T04:55:09.390Z,4260
2016-05-11T04:56:09.363Z,4332
2016-05-11T04:57:09.333Z,4416
2016-05-11T04:58:09.337Z,4528
2016-05-11T04:59:09.308Z,4636
2016-05-11T05:00:09.092Z,4756
2016-05-11T05:01:09.203Z,4848
2016-05-11T05:02:09.020Z,4960
2016-05-11T05:03:09.131Z,5056
2016-05-11T05:04:09.118Z,5160
2016-05-11T05:05:09.106Z,5268
2016-05-11T05:06:09.077Z,5384
2016-05-11T05:07:09.017Z,5524
2016-05-11T05:08:08.988Z,5672
2016-05-11T05:09:08.960Z,5816
2016-05-11T05:10:09.041Z,5932
2016-05-11T05:11:08.747Z,6116
2016-05-11T05:12:08.874Z,6336
2016-05-11T05:13:08.877Z,6512
2016-05-11T05:14:08.802Z,7036
2016-05-11T05:15:09.101Z,8248
2016-05-11T05:16:09.338Z,8516
2016-05-11T05:17:08.716Z,8440
2016-05-11T05:18:08.577Z,8964
2016-05-11T05:19:09.190Z,9604
2016-05-11T05:20:08.630Z,8512
2016-05-11T05:21:08.632Z,7792
2016-05-11T05:22:08.416Z,7644
2016-05-11T05:23:08.607Z,7700
2016-05-11T05:24:08.500Z,7884
2016-05-11T05:25:08.488Z,8224
2016-05-11T05:26:08.458Z,8712
2016-05-11T05:27:08.259Z,9960
2016-05-11T05:28:08.386Z,12384
2016-05-11T05:29:08.451Z,17952
2016-05-11T05:30:08.328Z,16960
2016-05-11T05:31:08.145Z,13440
2016-05-11T05:32:08.115Z,11072
2016-05-11T05:33:08.243Z,10536
2016-05-11T05:34:08.074Z,10272
2016-05-11T05:35:08.186Z,10276
2016-05-11T05:36:08.189Z,10444
2016-05-11T05:37:08.113Z,10744
2016-05-11T05:38:08.100Z,11260
2016-05-11T05:39:07.900Z,12064
2016-05-11T05:40:07.872Z,13252
2016-05-11T05:41:07.858Z,16512
2016-05-11T05:42:07.986Z,23840
2016-05-11T05:43:07.802Z,38144
2016-05-11T05:44:07.913Z,37664
2016-05-11T05:45:07.760Z,26848
2016-05-11T05:46:07.716Z,29600
2016-05-11T05:47:07.827Z,27232
2016-05-11T05:48:07.815Z,32128
2016-05-11T05:49:07.771Z,31072
2016-05-11T05:50:07.758Z,26208
2016-05-11T05:51:07.713Z,24256
2016-05-11T05:52:07.685Z,21184
2016-05-11T05:53:07.515Z,19616
2016-05-11T05:54:07.643Z,16576
2016-05-11T05:55:07.459Z,13400
2016-05-11T05:56:07.586Z,12256
2016-05-11T05:57:07.401Z,11752
2016-05-11T05:58:07.545Z,11504
2016-05-11T05:59:07.515Z,11428
2016-05-11T06:00:07.503Z,11404
2016-05-11T06:01:07.506Z,11404
2016-05-11T06:02:07.430Z,11396
2016-05-11T06:03:07.402Z,11424
2016-05-11T06:04:07.373Z,11516
2016-05-11T06:05:07.345Z,11700
2016-05-11T06:06:07.331Z,11944
2016-05-11T06:07:07.303Z,11848
2016-05-11T06:08:07.119Z,11964
2016-05-11T06:09:07.246Z,12244
2016-05-11T06:10:07.093Z,12360
2016-05-11T06:11:07.205Z,12544
2016-05-11T06:12:07.160Z,12864
2016-05-11T06:13:07.133Z,12828
2016-05-11T06:14:07.135Z,12968
2016-05-11T06:15:07.091Z,13560
2016-05-11T06:16:06.905Z,14192
2016-05-11T06:17:07.033Z,14488
2016-05-11T06:18:07.021Z,14368
2016-05-11T06:19:07.038Z,14040
2016-05-11T06:20:17.714Z,14092
2016-05-11T06:21:13.043Z,14112
2016-05-11T06:22:08.077Z,14284
2016-05-11T06:23:07.769Z,14448
2016-05-11T06:24:12.521Z,14584
2016-05-11T06:25:07.210Z,14880
2016-05-11T06:26:09.104Z,15376
2016-05-11T06:27:08.404Z,15864
2016-05-11T06:28:07.563Z,15592
2016-05-11T06:29:07.629Z,16028
2016-05-11T06:30:06.693Z,17024
2016-05-11T06:31:07.165Z,17312
2016-05-11T06:32:06.495Z,17280
2016-05-11T06:33:06.608Z,18080
2016-05-11T06:34:06.595Z,18976
2016-05-11T06:35:06.551Z,21248
2016-05-11T06:36:06.538Z,27744
2016-05-11T06:37:06.509Z,28000
2016-05-11T06:38:06.496Z,24192
2016-05-11T06:39:06.452Z,22944
2016-05-11T06:40:06.423Z,29024
2016-05-11T06:41:06.254Z,26016
2016-05-11T06:42:06.381Z,24544
2016-05-11T06:43:06.353Z,24288
2016-05-11T06:44:06.340Z,28096
2016-05-11T06:45:06.311Z,30976
2016-05-11T06:46:05.987Z,28000
2016-05-11T06:47:06.239Z,29024
2016-05-11T06:48:06.227Z,25504
2016-05-11T06:49:06.197Z,22176
2016-05-11T06:50:06.169Z,23264
2016-05-11T06:51:06.156Z,24928
2016-05-11T06:52:06.987Z,32256
2016-05-11T06:53:06.911Z,27552
2016-05-11T06:54:06.868Z,26304
2016-05-11T06:55:06.229Z,26432
2016-05-11T06:56:06.826Z,24768
2016-05-11T06:57:06.797Z,24224
2016-05-11T06:58:06.768Z,23808
2016-05-11T06:59:06.756Z,23872
2016-05-11T07:00:06.743Z,23904
2016-05-11T07:01:06.418Z,23744
2016-05-11T07:02:06.686Z,23456
2016-05-11T07:03:06.641Z,22848
2016-05-11T07:04:06.629Z,22400
2016-05-11T07:05:06.444Z,22176
2016-05-11T07:06:06.603Z,22496
2016-05-11T07:07:06.543Z,23136
2016-05-11T07:08:06.530Z,24768
2016-05-11T07:09:06.517Z,27616
2016-05-11T07:10:06.489Z,31840
2016-05-11T07:11:06.475Z,36640
2016-05-11T07:12:06.275Z,64512
2016-05-11T07:13:06.402Z,61600
2016-05-11T07:14:06.250Z,67904
2016-05-11T07:15:06.236Z,71840
2016-05-11T07:16:06.817Z,80192
2016-05-11T07:17:05.694Z,87296
2016-05-11T07:18:06.291Z,80448
2016-05-11T07:19:06.278Z,53920
2016-05-11T07:20:06.265Z,82272
2016-05-11T07:21:06.080Z,81280
2016-05-11T07:22:06.208Z,83456
2016-05-11T07:23:06.038Z,82176
2016-05-11T07:24:06.166Z,79872
2016-05-11T07:25:06.154Z,74528
2016-05-11T07:26:05.968Z,76736
2016-05-11T07:27:05.941Z,78944
2016-05-11T07:28:06.100Z,76544
2016-05-11T07:29:06.071Z,72640
2016-05-11T07:30:05.901Z,65024
2016-05-11T07:31:05.420Z,64896
2016-05-11T07:32:05.235Z,71840
2016-05-11T07:33:06.003Z,73504
2016-05-11T07:34:05.975Z,70048
2016-05-11T07:35:05.962Z,68768
2016-05-11T07:36:05.168Z,72032
2016-05-11T07:37:05.779Z,65856
2016-05-11T07:38:05.907Z,63584
2016-05-11T07:39:05.895Z,59936
2016-05-11T07:40:05.726Z,60096
2016-05-11T07:41:06.556Z,58336
2016-05-11T07:42:05.684Z,53600
2016-05-11T07:43:05.828Z,49664
2016-05-11T07:44:05.814Z,48800
2016-05-11T07:45:05.864Z,49792
2016-05-11T07:46:06.664Z,47392
2016-05-11T07:47:05.761Z,39520
2016-05-11T07:48:05.122Z,46304
2016-05-11T07:49:05.734Z,51392
2016-05-11T07:50:05.721Z,58688
2016-05-11T07:51:06.786Z,46976
2016-05-11T07:52:04.898Z,40992
2016-05-11T07:53:04.932Z,42272
2016-05-11T07:54:05.639Z,37696
2016-05-11T07:55:05.625Z,38784
2016-05-11T07:56:05.660Z,38912
2016-05-11T07:57:05.427Z,42080
2016-05-11T07:58:05.585Z,44256
2016-05-11T07:59:05.543Z,45792
2016-05-11T08:00:05.577Z,53696
2016-05-11T08:01:05.235Z,58112
2016-05-11T08:02:05.488Z,60192
2016-05-11T08:03:05.459Z,56800
2016-05-11T08:04:05.462Z,56480
2016-05-11T08:05:04.809Z,54400
2016-05-11T08:06:05.405Z,49024
2016-05-11T08:07:05.392Z,46464
2016-05-11T08:08:05.207Z,43264
2016-05-11T08:09:05.365Z,42432
2016-05-11T08:10:04.697Z,42528
2016-05-11T08:11:05.325Z,43680
2016-05-11T08:12:05.312Z,44608
2016-05-11T08:13:04.642Z,49248
2016-05-11T08:14:05.254Z,42048
2016-05-11T08:15:04.648Z,37728
2016-05-11T08:16:04.822Z,36000
2016-05-11T08:17:04.669Z,34240
2016-05-11T08:18:05.187Z,32640
2016-05-11T08:19:04.580Z,33312
2016-05-11T08:20:05.130Z,34848
2016-05-11T08:21:05.102Z,36384
2016-05-11T08:22:04.479Z,38176
2016-05-11T08:23:05.091Z,37696
2016-05-11T08:24:05.031Z,40288
2016-05-11T08:25:05.034Z,38272
2016-05-11T08:26:05.052Z,40672
2016-05-11T08:27:04.977Z,38976
2016-05-11T08:28:04.980Z,43968
2016-05-11T08:29:04.919Z,52192
2016-05-11T08:30:04.797Z,54080
2016-05-11T08:31:05.238Z,67072
2016-05-11T08:32:04.927Z,67840
2016-05-11T08:33:04.852Z,54464
2016-05-11T08:34:04.824Z,38624
2016-05-11T08:35:04.795Z,35264
2016-05-11T08:36:04.845Z,35744
2016-05-11T08:37:04.770Z,37344
2016-05-11T08:38:04.115Z,44288
2016-05-11T08:39:04.103Z,43392
2016-05-11T08:40:04.074Z,40800
2016-05-11T08:41:04.671Z,37152
2016-05-11T08:42:04.517Z,34720
2016-05-11T08:43:04.645Z,32128
2016-05-11T08:44:04.617Z,30336
2016-05-11T08:45:04.603Z,28672
2016-05-11T08:46:04.434Z,26880
2016-05-11T08:47:03.781Z,26816
2016-05-11T08:48:04.236Z,26240
2016-05-11T08:49:04.521Z,26304
2016-05-11T08:50:03.914Z,27680
2016-05-11T08:51:04.478Z,26912
2016-05-11T08:52:04.466Z,26144
2016-05-11T08:53:04.438Z,26400
2016-05-11T08:54:04.424Z,25856
2016-05-11T08:55:04.396Z,25152
2016-05-11T08:56:04.242Z,23776
2016-05-11T08:57:04.199Z,23104
2016-05-11T08:58:04.341Z,22048
2016-05-11T08:59:03.672Z,21376
2016-05-11T09:00:04.285Z,21088
2016-05-11T09:01:04.896Z,20672
2016-05-11T09:02:04.243Z,20576
2016-05-11T09:03:03.277Z,20256
2016-05-11T09:04:04.249Z,20128
2016-05-11T09:05:04.188Z,20128
2016-05-11T09:06:03.518Z,20288
2016-05-11T09:07:04.132Z,20192
2016-05-11T09:08:04.118Z,21152
2016-05-11T09:09:04.105Z,20992
2016-05-11T09:10:03.905Z,21504
2016-05-11T09:11:04.032Z,21920
2016-05-11T09:12:03.223Z,22720
2016-05-11T09:13:03.992Z,23872
2016-05-11T09:14:03.978Z,24192
2016-05-11T09:15:03.934Z,24416
2016-05-11T09:16:25.655Z,27232
2016-05-11T09:17:04.080Z,24928
2016-05-11T09:18:03.880Z,24640
2016-05-11T09:19:03.694Z,25824
2016-05-11T09:20:03.854Z,31200
2016-05-11T09:21:03.825Z,32320
2016-05-11T09:22:03.141Z,43104
2016-05-11T09:23:03.753Z,51168
2016-05-11T09:24:03.739Z,45152
2016-05-11T09:25:03.695Z,50400
2016-05-11T09:26:03.370Z,62080
2016-05-11T09:27:03.654Z,60032
2016-05-11T09:28:03.641Z,51968
2016-05-11T09:29:03.456Z,40096
2016-05-11T09:30:03.583Z,38400
2016-05-11T09:31:03.571Z,44352
2016-05-11T09:32:03.558Z,39424
2016-05-11T09:33:03.373Z,27712
2016-05-11T09:34:03.548Z,26656
2016-05-11T09:35:03.504Z,27968
2016-05-11T09:36:03.303Z,31904
2016-05-11T09:37:03.431Z,33888
2016-05-11T09:38:02.792Z,33312
2016-05-11T09:39:03.390Z,33376
2016-05-11T09:40:03.377Z,53760
2016-05-11T09:41:03.363Z,56640
2016-05-11T09:42:03.335Z,41120
2016-05-11T09:43:03.306Z,43296
2016-05-11T09:44:02.668Z,43040
2016-05-11T09:45:02.327Z,36032
2016-05-11T09:46:03.314Z,29888
2016-05-11T09:47:03.223Z,31008
2016-05-11T09:48:03.211Z,30464
2016-05-11T09:49:03.181Z,30912
2016-05-11T09:50:03.169Z,31936
2016-05-11T09:51:03.156Z,31552
2016-05-11T09:52:03.143Z,29952
2016-05-11T09:53:02.942Z,30080
2016-05-11T09:54:03.086Z,27904
2016-05-11T09:55:02.885Z,26784
2016-05-11T09:56:03.044Z,26752
2016-05-11T09:57:02.703Z,42816
2016-05-11T09:58:02.988Z,27488
2016-05-11T09:59:02.958Z,26912
2016-05-11T10:00:02.946Z,25632
2016-05-11T10:01:03.385Z,24416
2016-05-11T10:02:02.904Z,23872
2016-05-11T10:03:02.907Z,23808
2016-05-11T10:04:02.846Z,23936
2016-05-11T10:05:02.663Z,27136
2016-05-11T10:06:02.790Z,24896
2016-05-11T10:07:02.152Z,25728
2016-05-11T10:08:02.749Z,27008
2016-05-11T10:09:02.735Z,24320
2016-05-11T10:10:02.566Z,23264
2016-05-11T10:11:02.710Z,22240
2016-05-11T10:12:02.665Z,21088
2016-05-11T10:13:02.653Z,20128
2016-05-11T10:14:02.624Z,20000
2016-05-11T10:15:02.611Z,19328
2016-05-11T10:16:02.614Z,18752
2016-05-11T10:17:02.398Z,18272
2016-05-11T10:18:02.541Z,17952
2016-05-11T10:19:01.873Z,18752
2016-05-11T10:20:02.531Z,18112
2016-05-11T10:21:02.471Z,18080
2016-05-11T10:22:02.442Z,18240
2016-05-11T10:23:02.429Z,18240
2016-05-11T10:24:02.401Z,18464
2016-05-11T10:25:02.372Z,18880
2016-05-11T10:26:02.359Z,20352
2016-05-11T10:27:02.331Z,23872
2016-05-11T10:28:01.677Z,21472
2016-05-11T10:29:02.274Z,26720
2016-05-11T10:30:01.324Z,42912
2016-05-11T10:31:02.529Z,39776
2016-05-11T10:32:49.345Z,24736
2016-05-11T10:33:02.035Z,24768
2016-05-11T10:34:02.178Z,25120
2016-05-11T10:35:02.149Z,26112
2016-05-11T10:36:02.122Z,25440
2016-05-11T10:37:02.092Z,26912
2016-05-11T10:38:02.064Z,27680
2016-05-11T10:39:02.051Z,25376
2016-05-11T10:40:01.882Z,24416
2016-05-11T10:41:01.369Z,24768
2016-05-11T10:42:01.982Z,23648
2016-05-11T10:43:01.937Z,23328
2016-05-11T10:44:01.329Z,24352
2016-05-11T10:45:01.270Z,25344
2016-05-11T10:46:02.101Z,25728
2016-05-11T10:47:01.228Z,24768
2016-05-11T10:48:01.247Z,25536
2016-05-11T10:49:05.093Z,25984
2016-05-11T10:50:01.143Z,25056
2016-05-11T10:51:01.786Z,23168
2016-05-11T10:52:01.758Z,22848
2016-05-11T10:53:01.589Z,23520
2016-05-11T10:54:03.092Z,23296
2016-05-11T10:55:01.672Z,24320
2016-05-11T10:56:01.503Z,23232
2016-05-11T10:57:01.333Z,22560
2016-05-11T10:58:00.977Z,27104
2016-05-11T10:59:02.433Z,19712
2016-05-11T11:00:01.561Z,18336
2016-05-11T11:01:01.578Z,17760
2016-05-11T11:02:01.519Z,17312
2016-05-11T11:03:00.569Z,17056
2016-05-11T11:04:02.962Z,16928
2016-05-11T11:05:01.449Z,17024
2016-05-11T11:06:01.452Z,17248
2016-05-11T11:07:01.408Z,17408
2016-05-11T11:08:01.379Z,17568
2016-05-11T11:09:01.382Z,17632
2016-05-11T11:10:01.337Z,17632
2016-05-11T11:11:02.372Z,17696
2016-05-11T11:12:01.312Z,17856
2016-05-11T11:13:01.267Z,18016
2016-05-11T11:14:01.989Z,18304
2016-05-11T11:15:01.226Z,18624
2016-05-11T11:16:00.415Z,19040
2016-05-11T11:17:01.231Z,19456
2016-05-11T11:18:01.157Z,19776
2016-05-11T11:19:01.627Z,19872
2016-05-11T11:20:00.958Z,19936
2016-05-11T11:21:01.118Z,20032
2016-05-11T11:22:01.042Z,20160
2016-05-11T11:23:00.529Z,20224
2016-05-11T11:24:01.828Z,20064
2016-05-11T11:25:01.003Z,19744
2016-05-11T11:26:00.959Z,19392
2016-05-11T11:27:00.961Z,19168
2016-05-11T11:28:00.308Z,18816
2016-05-11T11:29:01.467Z,18336
2016-05-11T11:30:00.891Z,17632
2016-05-11T11:31:00.081Z,16896
2016-05-11T11:32:00.741Z,16060
2016-05-11T11:33:00.853Z,15240
2016-05-11T11:34:01.730Z,14232
2016-05-11T11:35:00.749Z,13312
2016-05-11T11:36:00.735Z,12664
2016-05-11T11:37:00.707Z,12348
2016-05-11T11:38:00.069Z,12304
2016-05-11T11:39:02.321Z,12500
2016-05-11T11:40:00.621Z,12784
2016-05-11T11:41:00.608Z,13084
2016-05-11T11:42:00.596Z,13332
2016-05-11T11:43:00.566Z,13456
2016-05-11T11:44:00.585Z,13496
2016-05-11T11:44:59.885Z,13464
2016-05-11T11:46:00.794Z,13448
2016-05-11T11:47:00.484Z,13500
2016-05-11T11:48:00.440Z,13628
2016-05-11T11:49:00.990Z,13804
2016-05-11T11:50:00.414Z,13976
2016-05-11T11:51:00.353Z,13924
2016-05-11T11:52:00.404Z,13844
2016-05-11T11:52:59.687Z,13592
2016-05-11T11:54:00.565Z,13248
2016-05-11T11:55:00.270Z,12908
2016-05-11T11:56:00.274Z,12596
2016-05-11T11:57:00.261Z,12328
2016-05-11T11:58:00.216Z,12048
2016-05-11T11:59:00.345Z,11784
2016-05-11T12:00:00.520Z,11436
2016-05-11T12:00:59.553Z,11000
2016-05-11T12:02:00.086Z,10520
2016-05-11T12:03:00.089Z,10080
2016-05-11T12:03:59.311Z,9720
2016-05-11T12:04:59.063Z,9408
2016-05-11T12:05:59.207Z,9164
2016-05-11T12:06:59.194Z,9052
2016-05-11T12:07:59.150Z,9112
2016-05-11T12:08:59.121Z,9312
2016-05-11T12:09:59.108Z,9688
2016-05-11T12:10:59.142Z,10216
2016-05-11T12:11:59.067Z,10684
2016-05-11T12:12:59.022Z,10976
2016-05-11T12:13:58.854Z,11136
2016-05-11T12:14:58.666Z,11276
2016-05-11T12:15:59.265Z,11392
2016-05-11T12:16:58.780Z,11500
2016-05-11T12:17:58.910Z,11612
2016-05-11T12:18:58.723Z,11744
2016-05-11T12:19:58.851Z,11804
2016-05-11T12:20:58.682Z,11812
2016-05-11T12:21:58.810Z,11744
2016-05-11T12:22:58.843Z,11640
2016-05-11T12:23:58.753Z,11544
2016-05-11T12:24:58.724Z,11480
2016-05-11T12:25:58.711Z,11440
2016-05-11T12:26:58.682Z,11448
2016-05-11T12:27:58.685Z,11492
2016-05-11T12:28:58.626Z,11588
2016-05-11T12:29:58.597Z,11688
2016-05-11T12:30:58.443Z,11796
2016-05-11T12:31:58.602Z,11896
2016-05-11T12:32:58.527Z,11972
2016-05-11T12:33:58.186Z,12004
2016-05-11T12:34:58.469Z,12008
2016-05-11T12:35:58.456Z,12016
2016-05-11T12:36:58.272Z,12004
2016-05-11T12:37:58.456Z,11980
2016-05-11T12:38:58.491Z,11908
2016-05-11T12:39:58.462Z,11764
2016-05-11T12:40:58.497Z,11576
2016-05-11T12:41:58.516Z,11320
2016-05-11T12:42:58.392Z,11024
2016-05-11T12:43:58.506Z,10660
2016-05-11T12:44:58.494Z,10240
2016-05-11T12:45:58.342Z,9796
2016-05-11T12:46:58.487Z,9384
2016-05-11T12:47:58.312Z,8980
2016-05-11T12:48:58.446Z,8560
2016-05-11T12:49:58.455Z,8116
2016-05-11T12:50:58.418Z,7644
2016-05-11T12:51:58.380Z,7280
2016-05-11T12:52:58.370Z,7236
2016-05-11T12:53:58.359Z,7432
2016-05-11T12:54:58.317Z,7648
2016-05-11T12:55:58.306Z,7864
2016-05-11T12:56:58.280Z,8116
2016-05-11T12:57:58.251Z,8396
2016-05-11T12:58:58.084Z,8640
2016-05-11T12:59:58.197Z,8868
2016-05-11T13:00:58.420Z,9036
2016-05-11T13:01:58.157Z,9180
2016-05-11T13:02:57.973Z,9260
2016-05-11T13:03:57.944Z,9280
2016-05-11T13:04:58.072Z,9264
2016-05-11T13:05:58.044Z,9244
2016-05-11T13:06:58.031Z,9156
2016-05-11T13:07:58.003Z,9092
2016-05-11T13:08:57.974Z,9064
2016-05-11T13:09:57.946Z,8996
2016-05-11T13:10:57.933Z,8904
2016-05-11T13:11:57.748Z,8768
2016-05-11T13:12:57.735Z,8580
2016-05-11T13:13:57.847Z,8392
2016-05-11T13:14:57.835Z,8232
2016-05-11T13:15:58.493Z,8080
2016-05-11T13:16:57.777Z,7940
2016-05-11T13:17:57.749Z,7812
2016-05-11T13:18:57.563Z,7644
2016-05-11T13:19:57.691Z,7424
2016-05-11T13:20:57.679Z,7168
2016-05-11T13:21:57.665Z,6892
2016-05-11T13:22:57.607Z,6616
2016-05-11T13:23:57.593Z,6336
2016-05-11T13:24:57.564Z,6060
2016-05-11T13:25:57.521Z,5816
2016-05-11T13:26:57.507Z,5648